Airport View

Enter AWOS ICAO identifier for current METAR.

ex. KFNL

KNQA 261050Z 17003KT 10SM BKN030 21/20 A3011

26 Jun 2019 11:52

Frequency: 118.925

Phone: 901-873-3630

Other Area AWOS: KM04 - KMEM - KAWM - KOLV

TAF AMD KMEM 260851Z 2609/2712 20007KT P6SM FEW040 BKN250 FM261400 22008KT P6SM SCT040 BKN200 FM270100 VRB03KT P6SM SCT040 BKN200